Time;durP1;ratioP1;P1;durP2;ratioP2;P2;SDS_P1;SDS_P2;PMS_P1;PMS_P2;Temp;Humidity;BMP_temperature;BMP_pressure;BME280_temperature;BME280_humidity;BME280_pressure;Samples;Min_cycle;Max_cycle;Signal;HPM_P1;HPM_P2
2023/05/22 00:01:05;;;;;;;4.28;2.45;;;;;;;;;;2088028;28;20029;-66
2023/05/22 00:02:24;;;;;;;3.70;2.83;;;;;;;;;;2090953;28;20490;-67
2023/05/22 00:03:43;;;;;;;4.10;2.72;;;;;;;;;;2086696;28;20490;-67
2023/05/22 00:05:02;;;;;;;5.85;2.75;;;;;;;;;;2090594;28;20033;-67
2023/05/22 00:06:22;;;;;;;2.28;2.03;;;;;;;;;;2092073;28;20041;-66
2023/05/22 00:07:41;;;;;;;3.20;2.90;;;;;;;;;;2092861;28;20061;-66
2023/05/22 00:09:01;;;;;;;5.63;2.75;;;;;;;;;;2091742;28;20032;-66
2023/05/22 00:10:20;;;;;;;2.75;2.50;;;;;;;;;;2090875;28;20377;-66
2023/05/22 00:11:39;;;;;;;7.20;3.10;;;;;;;;;;2088396;28;20417;-66
2023/05/22 00:12:57;;;;;;;6.70;3.35;;;;;;;;;;2094454;28;20044;-66
2023/05/22 00:14:17;;;;;;;3.40;2.47;;;;;;;;;;2094182;28;20498;-65
2023/05/22 00:15:36;;;;;;;5.00;3.13;;;;;;;;;;2087729;28;20037;-66
2023/05/22 00:16:55;;;;;;;5.05;3.33;;;;;;;;;;2089052;28;20037;-65
2023/05/22 00:18:14;;;;;;;6.70;3.05;;;;;;;;;;2090164;28;20048;-66
2023/05/22 00:19:33;;;;;;;7.72;4.60;;;;;;;;;;2090323;28;20750;-66
2023/05/22 00:20:53;;;;;;;3.97;3.63;;;;;;;;;;2089805;28;20033;-65
2023/05/22 00:22:11;;;;;;;8.13;3.72;;;;;;;;;;2083184;28;20029;-66
2023/05/22 00:23:30;;;;;;;4.35;3.70;;;;;;;;;;2085477;28;20033;-66
2023/05/22 00:24:49;;;;;;;4.95;4.00;;;;;;;;;;2090162;28;20032;-66
2023/05/22 00:26:08;;;;;;;3.80;3.47;;;;;;;;;;2090378;28;20033;-66
2023/05/22 00:27:27;;;;;;;5.30;3.92;;;;;;;;;;2090657;28;20025;-67
2023/05/22 00:28:46;;;;;;;4.15;3.55;;;;;;;;;;2091970;28;20041;-66
2023/05/22 00:30:06;;;;;;;4.40;3.97;;;;;;;;;;2092579;28;20025;-67
2023/05/22 00:31:25;;;;;;;5.35;4.10;;;;;;;;;;2089890;28;20440;-67
2023/05/22 00:32:44;;;;;;;4.13;3.70;;;;;;;;;;2087059;28;20024;-67
2023/05/22 00:34:03;;;;;;;4.75;3.80;;;;;;;;;;2090829;28;20021;-67
2023/05/22 00:35:22;;;;;;;6.20;4.50;;;;;;;;;;2093086;28;20486;-67
2023/05/22 00:36:41;;;;;;;5.43;3.85;;;;;;;;;;2092808;28;20036;-68
2023/05/22 00:38:02;;;;;;;5.30;3.25;;;;;;;;;;2091464;28;20028;-67
2023/05/22 00:39:21;;;;;;;3.90;3.50;;;;;;;;;;2091808;28;20114;-67
2023/05/22 00:40:40;;;;;;;4.18;3.75;;;;;;;;;;2090511;28;20057;-67
2023/05/22 00:41:58;;;;;;;6.22;3.42;;;;;;;;;;2092186;28;20036;-67
2023/05/22 00:43:17;;;;;;;4.00;3.58;;;;;;;;;;2091137;28;20060;-67
2023/05/22 00:44:36;;;;;;;5.57;4.05;;;;;;;;;;2090666;28;20021;-67
2023/05/22 00:45:55;;;;;;;6.88;3.40;;;;;;;;;;2090479;28;20020;-67
2023/05/22 00:47:14;;;;;;;4.88;3.78;;;;;;;;;;2090949;28;20025;-67
2023/05/22 00:48:33;;;;;;;4.22;3.40;;;;;;;;;;2091481;28;20028;-67
2023/05/22 00:49:52;;;;;;;4.55;3.63;;;;;;;;;;2089636;28;20017;-68
2023/05/22 00:51:11;;;;;;;4.65;3.65;;;;;;;;;;2085357;28;20390;-67
2023/05/22 00:52:30;;;;;;;3.55;3.25;;;;;;;;;;2092276;28;20033;-67
2023/05/22 00:53:49;;;;;;;3.47;3.10;;;;;;;;;;2093454;28;20525;-68
2023/05/22 00:55:10;;;;;;;7.70;2.88;;;;;;;;;;2095016;28;20064;-68
2023/05/22 00:56:29;;;;;;;5.18;3.30;;;;;;;;;;2095779;28;20052;-67
2023/05/22 00:57:50;;;;;;;3.85;3.10;;;;;;;;;;2095024;28;20473;-67
2023/05/22 00:59:09;;;;;;;8.43;2.70;;;;;;;;;;2094562;28;20037;-68
2023/05/22 01:00:29;;;;;;;10.15;3.05;;;;;;;;;;2091802;28;20033;-67
2023/05/22 01:01:48;;;;;;;3.47;2.92;;;;;;;;;;2092059;28;20044;-68
2023/05/22 01:03:08;;;;;;;5.35;2.40;;;;;;;;;;2092271;28;20036;-67
2023/05/22 01:04:31;;;;;;;4.53;2.65;;;;;;;;;;2090951;28;20020;-68
2023/05/22 01:05:51;;;;;;;3.35;2.30;;;;;;;;;;2093669;28;20104;-67
2023/05/22 01:07:10;;;;;;;5.20;2.50;;;;;;;;;;2090719;28;20029;-67
2023/05/22 01:08:29;;;;;;;3.78;2.60;;;;;;;;;;2090946;28;20029;-67
2023/05/22 01:09:49;;;;;;;3.45;2.72;;;;;;;;;;2092663;28;20041;-67
2023/05/22 01:11:23;;;;;;;5.40;2.50;;;;;;;;;;2093218;28;20028;-67
2023/05/22 01:12:42;;;;;;;3.22;2.92;;;;;;;;;;2092638;28;20394;-67
2023/05/22 01:14:09;;;;;;;4.15;2.55;;;;;;;;;;2089668;28;20041;-67
2023/05/22 01:15:40;;;;;;;4.22;2.55;;;;;;;;;;2090858;28;20029;-66
2023/05/22 01:17:07;;;;;;;4.32;2.22;;;;;;;;;;2091816;28;20536;-66
2023/05/22 01:18:30;;;;;;;4.60;2.63;;;;;;;;;;2091910;28;20037;-67
2023/05/22 01:20:05;;;;;;;3.58;2.50;;;;;;;;;;2090731;28;20430;-66
2023/05/22 01:21:45;;;;;;;4.53;2.50;;;;;;;;;;2090745;28;20048;-66
2023/05/22 01:23:16;;;;;;;3.20;2.63;;;;;;;;;;2091701;28;20032;-67
2023/05/22 01:24:44;;;;;;;2.70;2.28;;;;;;;;;;2093976;28;20100;-67
2023/05/22 01:26:42;;;;;;;7.85;2.90;;;;;;;;;;2093171;28;20033;-66
2023/05/22 01:28:07;;;;;;;2.97;2.45;;;;;;;;;;2073570;28;20026;-67
2023/05/22 01:29:40;;;;;;;3.75;2.92;;;;;;;;;;2071900;28;20026;-66
2023/05/22 01:31:07;;;;;;;6.50;2.60;;;;;;;;;;2072486;28;20038;-66
2023/05/22 01:32:27;;;;;;;2.97;2.53;;;;;;;;;;2073890;28;20026;-66
2023/05/22 01:33:56;;;;;;;3.13;2.63;;;;;;;;;;2089049;28;20025;-66
2023/05/22 01:35:17;;;;;;;5.28;2.33;;;;;;;;;;2091916;28;20033;-67
2023/05/22 01:36:37;;;;;;;4.25;2.70;;;;;;;;;;2094844;28;20455;-67
2023/05/22 01:37:56;;;;;;;2.65;2.45;;;;;;;;;;2090434;28;20032;-67
2023/05/22 01:39:17;;;;;;;3.63;2.33;;;;;;;;;;2092763;28;20025;-66
2023/05/22 01:40:36;;;;;;;7.38;2.50;;;;;;;;;;2092135;28;20029;-66
2023/05/22 01:41:56;;;;;;;3.67;2.85;;;;;;;;;;2092562;28;20429;-66
2023/05/22 01:43:15;;;;;;;2.78;2.50;;;;;;;;;;2094197;28;20029;-67
2023/05/22 01:44:34;;;;;;;4.18;2.42;;;;;;;;;;2093631;28;20020;-67
2023/05/22 01:45:53;;;;;;;3.80;2.30;;;;;;;;;;2092102;28;20017;-68
2023/05/22 01:47:12;;;;;;;3.17;2.80;;;;;;;;;;2094797;28;20052;-67
2023/05/22 01:48:32;;;;;;;7.68;2.42;;;;;;;;;;2092359;28;20493;-67
2023/05/22 01:49:51;;;;;;;3.08;2.58;;;;;;;;;;2090921;28;20025;-67
2023/05/22 01:51:10;;;;;;;3.20;2.55;;;;;;;;;;2090431;28;20107;-67
2023/05/22 01:52:33;;;;;;;5.65;2.45;;;;;;;;;;2093481;28;20056;-67
2023/05/22 01:53:58;;;;;;;4.20;2.78;;;;;;;;;;2098655;28;20552;-68
2023/05/22 01:55:26;;;;;;;5.60;2.95;;;;;;;;;;2092939;28;20044;-67
2023/05/22 01:56:47;;;;;;;7.32;3.20;;;;;;;;;;2091437;28;20033;-67
2023/05/22 01:58:16;;;;;;;5.45;2.85;;;;;;;;;;2093046;28;20077;-67
2023/05/22 01:59:47;;;;;;;4.75;2.60;;;;;;;;;;2089655;28;20107;-67
2023/05/22 02:01:07;;;;;;;4.18;2.60;;;;;;;;;;2088214;28;20449;-67
2023/05/22 02:02:27;;;;;;;7.43;2.22;;;;;;;;;;2091379;28;20029;-67
2023/05/22 02:03:50;;;;;;;3.60;2.60;;;;;;;;;;2091880;28;20074;-68
2023/05/22 02:05:09;;;;;;;;;;;;;;;;;;2090478;28;20037;-67
2023/05/22 02:06:31;;;;;;;3.08;2.70;;;;;;;;;;2088550;28;19993;-67
2023/05/22 02:07:51;;;;;;;4.22;2.78;;;;;;;;;;2090783;28;20032;-68
2023/05/22 02:09:11;;;;;;;5.47;2.40;;;;;;;;;;2092398;28;20025;-67
2023/05/22 02:10:32;;;;;;;4.70;2.58;;;;;;;;;;2087217;28;20020;-68
2023/05/22 02:11:51;;;;;;;8.23;2.67;;;;;;;;;;2091319;28;20032;-68
2023/05/22 02:13:10;;;;;;;7.55;2.88;;;;;;;;;;2090975;28;20039;-67
2023/05/22 02:14:29;;;;;;;4.35;2.65;;;;;;;;;;2090721;28;20048;-66
2023/05/22 02:15:48;;;;;;;5.13;2.97;;;;;;;;;;2088975;28;20099;-67
2023/05/22 02:17:07;;;;;;;5.00;2.42;;;;;;;;;;2091102;28;20482;-67
2023/05/22 02:18:30;;;;;;;6.43;2.83;;;;;;;;;;2092974;28;20024;-68
2023/05/22 02:19:49;;;;;;;5.03;3.20;;;;;;;;;;2092440;28;20033;-67
2023/05/22 02:21:08;;;;;;;6.90;2.95;;;;;;;;;;2091956;28;20369;-67
2023/05/22 02:22:27;;;;;;;7.97;2.70;;;;;;;;;;2092251;28;20496;-67
2023/05/22 02:23:46;;;;;;;4.65;2.50;;;;;;;;;;2088669;28;20437;-67
2023/05/22 02:25:08;;;;;;;5.20;2.65;;;;;;;;;;2092700;28;20592;-67
2023/05/22 02:26:27;;;;;;;3.03;2.30;;;;;;;;;;2089467;28;20489;-67
2023/05/22 02:27:46;;;;;;;6.97;2.80;;;;;;;;;;2092863;28;20033;-67
2023/05/22 02:29:06;;;;;;;3.80;2.80;;;;;;;;;;2092006;28;20029;-67
2023/05/22 02:30:24;;;;;;;7.75;3.00;;;;;;;;;;2089968;28;20510;-68
2023/05/22 02:31:44;;;;;;;4.68;2.60;;;;;;;;;;2093303;28;20040;-67
2023/05/22 02:33:04;;;;;;;2.95;2.40;;;;;;;;;;2091159;28;20024;-68
2023/05/22 02:34:23;;;;;;;6.18;2.45;;;;;;;;;;2089350;28;20024;-67
2023/05/22 02:35:43;;;;;;;9.45;2.35;;;;;;;;;;2091707;28;20490;-67
2023/05/22 02:37:02;;;;;;;2.95;2.55;;;;;;;;;;2091500;28;20025;-69
2023/05/22 02:38:21;;;;;;;4.05;2.33;;;;;;;;;;2088432;28;20386;-67
2023/05/22 02:39:40;;;;;;;8.55;2.95;;;;;;;;;;2091476;28;20477;-67
2023/05/22 02:40:59;;;;;;;5.53;2.33;;;;;;;;;;2092318;28;20024;-68
2023/05/22 02:42:18;;;;;;;2.85;2.55;;;;;;;;;;2090719;28;20025;-67
2023/05/22 02:43:37;;;;;;;3.30;2.80;;;;;;;;;;2091357;28;20033;-68
2023/05/22 02:44:56;;;;;;;6.93;2.70;;;;;;;;;;2092368;28;20033;-67
2023/05/22 02:46:15;;;;;;;5.85;2.70;;;;;;;;;;2089286;28;20033;-67
2023/05/22 02:47:34;;;;;;;5.60;2.60;;;;;;;;;;2090056;28;20029;-67
2023/05/22 02:48:53;;;;;;;3.17;2.58;;;;;;;;;;2091675;28;20076;-67
2023/05/22 02:50:13;;;;;;;3.45;2.63;;;;;;;;;;2094560;28;20449;-67
2023/05/22 02:51:32;;;;;;;2.78;2.50;;;;;;;;;;2087634;28;20025;-67
2023/05/22 02:52:51;;;;;;;3.78;2.97;;;;;;;;;;2091620;28;20036;-67
2023/05/22 02:54:10;;;;;;;4.18;2.47;;;;;;;;;;2089544;28;20048;-67
2023/05/22 02:55:29;;;;;;;3.13;2.75;;;;;;;;;;2093232;28;20033;-67
2023/05/22 02:56:48;;;;;;;5.63;2.83;;;;;;;;;;2092741;28;20033;-67
2023/05/22 02:58:11;;;;;;;5.18;3.25;;;;;;;;;;2088390;28;20016;-67
2023/05/22 02:59:30;;;;;;;5.20;3.10;;;;;;;;;;2092258;28;20435;-68
2023/05/22 03:00:51;;;;;;;3.97;3.10;;;;;;;;;;2087532;28;20029;-67
2023/05/22 03:02:11;;;;;;;4.40;2.40;;;;;;;;;;2092614;28;20028;-67
2023/05/22 03:03:30;;;;;;;4.82;2.63;;;;;;;;;;2090512;28;20494;-68
2023/05/22 03:04:49;;;;;;;6.50;2.70;;;;;;;;;;2093513;28;20036;-67
2023/05/22 03:06:09;;;;;;;7.10;2.60;;;;;;;;;;2093759;28;20044;-67
2023/05/22 03:07:28;;;;;;;10.32;3.10;;;;;;;;;;2089250;28;20024;-67
2023/05/22 03:08:47;;;;;;;5.50;2.55;;;;;;;;;;2089472;28;20024;-68
2023/05/22 03:10:06;;;;;;;4.70;2.83;;;;;;;;;;2093242;28;20486;-67
2023/05/22 03:11:25;;;;;;;3.80;2.67;;;;;;;;;;2087607;28;20028;-67
2023/05/22 03:12:44;;;;;;;4.28;2.80;;;;;;;;;;2088265;28;20033;-67
2023/05/22 03:14:03;;;;;;;7.13;2.75;;;;;;;;;;2090370;28;20119;-67
2023/05/22 03:15:22;;;;;;;4.22;2.60;;;;;;;;;;2087096;28;20040;-67
2023/05/22 03:16:41;;;;;;;6.00;2.80;;;;;;;;;;2092100;28;20041;-66
2023/05/22 03:18:01;;;;;;;6.38;2.55;;;;;;;;;;2092731;28;20036;-67
2023/05/22 03:19:20;;;;;;;2.67;2.47;;;;;;;;;;2089519;28;20037;-67
2023/05/22 03:20:40;;;;;;;6.55;2.75;;;;;;;;;;2090005;28;20020;-67
2023/05/22 03:21:59;;;;;;;3.92;2.25;;;;;;;;;;2089843;28;20116;-68
2023/05/22 03:23:21;;;;;;;5.47;2.53;;;;;;;;;;2087570;28;20025;-67
2023/05/22 03:24:40;;;;;;;4.50;2.42;;;;;;;;;;2092625;28;20084;-67
2023/05/22 03:25:59;;;;;;;7.25;2.70;;;;;;;;;;2092092;28;20382;-67
2023/05/22 03:27:19;;;;;;;4.15;2.60;;;;;;;;;;2091190;28;20378;-67
2023/05/22 03:28:38;;;;;;;5.88;2.67;;;;;;;;;;2092512;28;20028;-68
2023/05/22 03:29:57;;;;;;;2.70;2.50;;;;;;;;;;2091430;28;20029;-67
2023/05/22 03:31:16;;;;;;;7.75;3.13;;;;;;;;;;2092242;28;20029;-67
2023/05/22 03:32:36;;;;;;;7.90;2.63;;;;;;;;;;2090522;28;20033;-68
2023/05/22 03:33:55;;;;;;;5.57;2.85;;;;;;;;;;2087181;28;20029;-68
2023/05/22 03:35:18;;;;;;;6.00;3.05;;;;;;;;;;2092218;28;20099;-67
2023/05/22 03:36:37;;;;;;;6.60;3.47;;;;;;;;;;2091374;28;20180;-67
2023/05/22 03:37:56;;;;;;;6.60;3.08;;;;;;;;;;2090319;28;20037;-67
2023/05/22 03:39:15;;;;;;;5.75;2.88;;;;;;;;;;2091001;28;20028;-68
2023/05/22 03:40:34;;;;;;;6.28;2.50;;;;;;;;;;2090310;28;20025;-68
2023/05/22 03:41:53;;;;;;;5.15;2.83;;;;;;;;;;2090684;28;20100;-68
2023/05/22 03:43:11;;;;;;;6.03;2.78;;;;;;;;;;2092742;28;20033;-68
2023/05/22 03:44:30;;;;;;;2.50;2.30;;;;;;;;;;2090378;28;20025;-68
2023/05/22 03:45:49;;;;;;;2.88;2.67;;;;;;;;;;2090133;28;20030;-68
2023/05/22 03:47:08;;;;;;;3.67;2.78;;;;;;;;;;2091579;28;20024;-69
2023/05/22 03:48:27;;;;;;;3.35;3.05;;;;;;;;;;2093509;28;20020;-68
2023/05/22 03:49:46;;;;;;;3.60;2.50;;;;;;;;;;2086681;28;20424;-68
2023/05/22 03:51:05;;;;;;;4.75;2.70;;;;;;;;;;2090621;28;20033;-68
2023/05/22 03:52:24;;;;;;;4.45;2.58;;;;;;;;;;2094552;28;20481;-68
2023/05/22 03:53:43;;;;;;;6.07;2.83;;;;;;;;;;2091154;28;20409;-68
2023/05/22 03:55:02;;;;;;;5.90;3.05;;;;;;;;;;2090147;28;20278;-68
2023/05/22 03:56:21;;;;;;;3.03;2.70;;;;;;;;;;2089131;28;20028;-68
2023/05/22 03:57:40;;;;;;;6.03;2.65;;;;;;;;;;2089792;28;20037;-68
2023/05/22 03:58:59;;;;;;;5.00;2.95;;;;;;;;;;2090573;28;20033;-68
2023/05/22 04:00:18;;;;;;;3.90;2.35;;;;;;;;;;2090863;28;20028;-68
2023/05/22 04:01:40;;;;;;;5.50;2.80;;;;;;;;;;2088155;28;20041;-68
2023/05/22 04:02:59;;;;;;;7.15;2.47;;;;;;;;;;2089675;28;20037;-69
2023/05/22 04:04:18;;;;;;;2.97;2.50;;;;;;;;;;2091524;28;20477;-68
2023/05/22 04:05:40;;;;;;;5.72;2.60;;;;;;;;;;2089278;28;20020;-68
2023/05/22 04:06:59;;;;;;;6.28;2.60;;;;;;;;;;2089061;28;20055;-67
2023/05/22 04:08:18;;;;;;;2.70;2.47;;;;;;;;;;2091123;28;20470;-68
2023/05/22 04:09:37;;;;;;;8.07;2.88;;;;;;;;;;2090677;28;20120;-67
2023/05/22 04:10:56;;;;;;;3.65;2.60;;;;;;;;;;2091508;28;20060;-68
2023/05/22 04:12:14;;;;;;;3.75;2.60;;;;;;;;;;2091570;28;20029;-69
2023/05/22 04:13:33;;;;;;;6.72;3.28;;;;;;;;;;2094432;28;20033;-68
2023/05/22 04:14:52;;;;;;;5.13;2.60;;;;;;;;;;2087439;28;20020;-68
2023/05/22 04:16:11;;;;;;;5.97;2.95;;;;;;;;;;2089071;28;20068;-68
2023/05/22 04:17:33;;;;;;;3.08;2.70;;;;;;;;;;2090624;28;20028;-68
2023/05/22 04:18:52;;;;;;;3.33;2.80;;;;;;;;;;2092250;28;20489;-67
2023/05/22 04:20:11;;;;;;;4.45;2.90;;;;;;;;;;2086411;28;20044;-68
2023/05/22 04:21:33;;;;;;;2.88;2.53;;;;;;;;;;2089863;28;20024;-68
2023/05/22 04:22:53;;;;;;;6.45;2.85;;;;;;;;;;2090629;28;20037;-69
2023/05/22 04:24:12;;;;;;;4.75;2.85;;;;;;;;;;2087976;28;20498;-67
2023/05/22 04:25:33;;;;;;;5.15;3.47;;;;;;;;;;2087619;28;20037;-67
2023/05/22 04:26:52;;;;;;;3.67;3.10;;;;;;;;;;2088580;28;20033;-68
2023/05/22 04:28:11;;;;;;;7.13;3.08;;;;;;;;;;2091279;28;20032;-68
2023/05/22 04:29:31;;;;;;;3.10;2.80;;;;;;;;;;2094070;28;20059;-67
2023/05/22 04:30:50;;;;;;;5.10;2.90;;;;;;;;;;2087820;28;20062;-68
2023/05/22 04:32:09;;;;;;;2.80;2.58;;;;;;;;;;2090145;28;20486;-67
2023/05/22 04:33:29;;;;;;;4.97;2.78;;;;;;;;;;2095150;28;20478;-67
2023/05/22 04:34:49;;;;;;;5.43;2.47;;;;;;;;;;2089690;28;20101;-67
2023/05/22 04:36:09;;;;;;;7.32;3.13;;;;;;;;;;2090823;28;20056;-68
2023/05/22 04:37:30;;;;;;;5.82;3.13;;;;;;;;;;2090580;28;20037;-67
2023/05/22 04:38:49;;;;;;;5.30;2.65;;;;;;;;;;2092111;28;20036;-67
2023/05/22 04:40:08;;;;;;;5.97;3.35;;;;;;;;;;2093666;28;20029;-67
2023/05/22 04:41:27;;;;;;;3.75;2.63;;;;;;;;;;2089116;28;20032;-68
2023/05/22 04:42:46;;;;;;;13.43;3.35;;;;;;;;;;2090322;28;20427;-68
2023/05/22 04:44:06;;;;;;;7.43;3.08;;;;;;;;;;2082536;28;20678;-68
2023/05/22 04:45:25;;;;;;;4.30;3.38;;;;;;;;;;2091170;28;20478;-68
2023/05/22 04:46:44;;;;;;;5.75;3.00;;;;;;;;;;2088942;28;20024;-67
2023/05/22 04:48:03;;;;;;;8.95;3.30;;;;;;;;;;2087712;28;20025;-67
2023/05/22 04:49:23;;;;;;;5.55;3.28;;;;;;;;;;2091584;28;20494;-67
2023/05/22 04:50:45;;;;;;;6.15;3.03;;;;;;;;;;2088399;28;20554;-67
2023/05/22 04:52:04;;;;;;;10.95;3.45;;;;;;;;;;2090451;28;20033;-67
2023/05/22 04:53:23;;;;;;;4.47;3.40;;;;;;;;;;2091471;28;20056;-66
2023/05/22 04:54:45;;;;;;;5.15;2.60;;;;;;;;;;2093270;28;20025;-67
2023/05/22 04:56:04;;;;;;;4.45;3.13;;;;;;;;;;2090358;28;20518;-68
2023/05/22 04:57:26;;;;;;;9.50;4.22;;;;;;;;;;2095898;28;20036;-68
2023/05/22 04:58:47;;;;;;;5.03;4.10;;;;;;;;;;2087848;28;20044;-67
2023/05/22 05:00:07;;;;;;;8.93;4.00;;;;;;;;;;2087191;28;20028;-68
2023/05/22 05:01:26;;;;;;;9.38;3.75;;;;;;;;;;2092108;28;20036;-67
2023/05/22 05:02:45;;;;;;;11.98;3.40;;;;;;;;;;2087187;28;20041;-67
2023/05/22 05:04:05;;;;;;;8.38;3.72;;;;;;;;;;2092098;28;20064;-67
2023/05/22 05:05:24;;;;;;;3.30;2.92;;;;;;;;;;2091640;28;20032;-67
2023/05/22 05:06:43;;;;;;;8.10;3.47;;;;;;;;;;2091681;28;20041;-67
2023/05/22 05:08:02;;;;;;;7.47;2.83;;;;;;;;;;2092693;28;20032;-68
2023/05/22 05:09:21;;;;;;;3.85;3.10;;;;;;;;;;2090827;28;20036;-66
2023/05/22 05:10:40;;;;;;;6.10;3.00;;;;;;;;;;2090552;28;20425;-66
2023/05/22 05:11:58;;;;;;;6.70;3.15;;;;;;;;;;2086523;28;20470;-66
2023/05/22 05:13:17;;;;;;;7.00;3.13;;;;;;;;;;2092266;28;20512;-67
2023/05/22 05:14:36;;;;;;;13.32;3.95;;;;;;;;;;2096716;28;20032;-67
2023/05/22 05:15:56;;;;;;;5.32;3.17;;;;;;;;;;2089318;28;20507;-66
2023/05/22 05:17:15;;;;;;;8.93;3.22;;;;;;;;;;2089104;28;20378;-68
2023/05/22 05:18:34;;;;;;;7.55;3.20;;;;;;;;;;2085617;28;20159;-67
2023/05/22 05:19:53;;;;;;;7.00;3.30;;;;;;;;;;2092007;28;20033;-66
2023/05/22 05:21:12;;;;;;;6.45;2.67;;;;;;;;;;2090039;28;20494;-67
2023/05/22 05:22:31;;;;;;;15.68;3.10;;;;;;;;;;2092020;28;20464;-67
2023/05/22 05:23:50;;;;;;;9.05;3.08;;;;;;;;;;2089694;28;20115;-67
2023/05/22 05:25:10;;;;;;;13.05;3.35;;;;;;;;;;2090605;28;20028;-68
2023/05/22 05:26:29;;;;;;;11.88;3.08;;;;;;;;;;2089704;28;20021;-67
2023/05/22 05:27:48;;;;;;;6.03;2.97;;;;;;;;;;2088431;28;20657;-67
2023/05/22 05:29:07;;;;;;;6.78;2.92;;;;;;;;;;2090504;28;20136;-67
2023/05/22 05:30:28;;;;;;;8.13;2.70;;;;;;;;;;2086266;28;20021;-67
2023/05/22 05:31:47;;;;;;;13.15;2.80;;;;;;;;;;2092289;28;20021;-67
2023/05/22 05:33:06;;;;;;;7.18;3.03;;;;;;;;;;2086993;28;20029;-67
2023/05/22 05:34:25;;;;;;;8.90;2.70;;;;;;;;;;2088840;28;20657;-67
2023/05/22 05:35:44;;;;;;;8.48;3.55;;;;;;;;;;2089024;28;20448;-67
2023/05/22 05:37:03;;;;;;;8.50;2.78;;;;;;;;;;2092147;28;20013;-67
2023/05/22 05:38:22;;;;;;;7.18;2.80;;;;;;;;;;2085989;28;20508;-67
2023/05/22 05:39:41;;;;;;;11.30;3.22;;;;;;;;;;2088610;28;20497;-67
2023/05/22 05:41:00;;;;;;;9.80;3.22;;;;;;;;;;2082110;28;20029;-67
2023/05/22 05:42:19;;;;;;;4.80;2.72;;;;;;;;;;2089828;28;20033;-67
2023/05/22 05:43:38;;;;;;;9.52;3.13;;;;;;;;;;2093035;28;20448;-70
2023/05/22 05:44:57;;;;;;;11.55;3.10;;;;;;;;;;2092736;28;20448;-67
2023/05/22 05:46:16;;;;;;;8.48;3.10;;;;;;;;;;2084567;28;20033;-67
2023/05/22 05:47:35;;;;;;;9.20;2.83;;;;;;;;;;2089453;28;20506;-67
2023/05/22 05:48:54;;;;;;;10.77;3.08;;;;;;;;;;2084947;28;20140;-67
2023/05/22 05:50:14;;;;;;;9.13;3.05;;;;;;;;;;2091303;28;20021;-67
2023/05/22 05:51:33;;;;;;;5.95;2.47;;;;;;;;;;2094439;28;20029;-67
2023/05/22 05:52:52;;;;;;;6.88;3.05;;;;;;;;;;2090558;28;20029;-67
2023/05/22 05:54:11;;;;;;;6.35;2.40;;;;;;;;;;2090689;28;20037;-67
2023/05/22 05:55:31;;;;;;;6.63;2.92;;;;;;;;;;2087813;28;20029;-67
2023/05/22 05:56:50;;;;;;;8.00;3.03;;;;;;;;;;2088408;28;20033;-66
2023/05/22 05:58:09;;;;;;;6.38;3.13;;;;;;;;;;2093350;28;20049;-67
2023/05/22 05:59:30;;;;;;;6.88;2.75;;;;;;;;;;2094001;28;20107;-67
2023/05/22 06:00:49;;;;;;;3.80;2.80;;;;;;;;;;2091306;28;20145;-67
2023/05/22 06:02:08;;;;;;;8.90;2.28;;;;;;;;;;2094969;28;20044;-67
2023/05/22 06:03:27;;;;;;;8.77;2.90;;;;;;;;;;2091887;28;20041;-66
2023/05/22 06:04:47;;;;;;;8.18;2.63;;;;;;;;;;2092011;28;20404;-67
2023/05/22 06:06:06;;;;;;;8.90;2.25;;;;;;;;;;2093012;28;20028;-67
2023/05/22 06:07:27;;;;;;;8.90;2.42;;;;;;;;;;2094487;28;20543;-69
2023/05/22 06:08:46;;;;;;;6.20;2.58;;;;;;;;;;2095952;28;20048;-67
2023/05/22 06:10:09;;;;;;;8.07;2.72;;;;;;;;;;2093762;28;20029;-66
2023/05/22 06:11:28;;;;;;;7.05;2.75;;;;;;;;;;2093692;28;20564;-66
2023/05/22 06:12:47;;;;;;;13.68;3.47;;;;;;;;;;2094511;28;20462;-67
2023/05/22 06:14:07;;;;;;;6.90;2.30;;;;;;;;;;2094599;28;20032;-67
2023/05/22 06:15:26;;;;;;;2.50;2.05;;;;;;;;;;2092104;28;20041;-67
2023/05/22 06:16:45;;;;;;;4.32;1.65;;;;;;;;;;2092826;28;20029;-67
2023/05/22 06:18:04;;;;;;;5.63;1.75;;;;;;;;;;2093581;28;20509;-67
2023/05/22 06:19:23;;;;;;;3.53;1.90;;;;;;;;;;2093732;28;20482;-67
2023/05/22 06:20:42;;;;;;;4.50;1.75;;;;;;;;;;2092778;28;20032;-67
2023/05/22 06:22:01;;;;;;;6.05;1.85;;;;;;;;;;2091873;28;20025;-67
2023/05/22 06:23:19;;;;;;;7.55;2.42;;;;;;;;;;2092917;28;20025;-67
2023/05/22 06:24:38;;;;;;;5.20;2.10;;;;;;;;;;2094590;28;20028;-67
2023/05/22 06:25:57;;;;;;;4.10;2.00;;;;;;;;;;2091237;28;20029;-67
2023/05/22 06:27:16;;;;;;;6.20;2.17;;;;;;;;;;2092642;28;20033;-68
2023/05/22 06:28:35;;;;;;;6.05;2.35;;;;;;;;;;2093533;28;20033;-67
2023/05/22 06:29:55;;;;;;;5.10;2.00;;;;;;;;;;2093143;28;20021;-67
2023/05/22 06:31:14;;;;;;;9.02;2.00;;;;;;;;;;2092953;28;20025;-67
2023/05/22 06:32:32;;;;;;;8.63;1.90;;;;;;;;;;2091881;28;20849;-66
2023/05/22 06:33:51;;;;;;;4.80;1.90;;;;;;;;;;2090427;28;20454;-67
2023/05/22 06:35:11;;;;;;;8.75;2.30;;;;;;;;;;2091280;28;20025;-68
2023/05/22 06:36:30;;;;;;;8.25;1.92;;;;;;;;;;2091310;28;20033;-67
2023/05/22 06:37:49;;;;;;;4.75;2.17;;;;;;;;;;2087986;28;20029;-68
2023/05/22 06:39:08;;;;;;;8.38;2.30;;;;;;;;;;2090113;28;20048;-67
2023/05/22 06:40:27;;;;;;;6.10;2.10;;;;;;;;;;2092878;28;20036;-67
2023/05/22 06:41:46;;;;;;;2.85;1.88;;;;;;;;;;2090660;28;20033;-67
2023/05/22 06:43:05;;;;;;;4.68;1.92;;;;;;;;;;2093012;28;20028;-67
2023/05/22 06:44:24;;;;;;;7.10;2.15;;;;;;;;;;2091257;28;20036;-67
2023/05/22 06:45:43;;;;;;;3.80;2.08;;;;;;;;;;2089206;28;20020;-67
2023/05/22 06:47:02;;;;;;;4.25;2.13;;;;;;;;;;2092315;28;20021;-67
2023/05/22 06:48:21;;;;;;;6.07;1.65;;;;;;;;;;2092696;28;20493;-67
2023/05/22 06:49:40;;;;;;;4.10;1.90;;;;;;;;;;2091189;28;20025;-66
2023/05/22 06:50:59;;;;;;;6.28;2.42;;;;;;;;;;2091813;28;20428;-67
2023/05/22 06:52:18;;;;;;;5.95;2.30;;;;;;;;;;2092339;28;20028;-67
2023/05/22 06:53:37;;;;;;;8.27;2.25;;;;;;;;;;2092978;28;20033;-67
2023/05/22 06:55:03;;;;;;;10.57;2.22;;;;;;;;;;2088834;28;20041;-67
2023/05/22 06:56:23;;;;;;;5.40;2.03;;;;;;;;;;2089072;28;20029;-67
2023/05/22 06:57:42;;;;;;;5.93;2.17;;;;;;;;;;2091733;28;20036;-67
2023/05/22 06:59:01;;;;;;;5.07;2.15;;;;;;;;;;2090929;28;20033;-68
2023/05/22 07:00:20;;;;;;;9.20;2.88;;;;;;;;;;2091403;28;20029;-67
2023/05/22 07:01:39;;;;;;;10.30;2.55;;;;;;;;;;2091770;28;20038;-67
2023/05/22 07:02:58;;;;;;;4.00;1.90;;;;;;;;;;2090208;28;20048;-67
2023/05/22 07:04:16;;;;;;;6.03;2.40;;;;;;;;;;2090625;28;20037;-67
2023/05/22 07:05:36;;;;;;;5.38;2.30;;;;;;;;;;2090899;28;20024;-67
2023/05/22 07:06:54;;;;;;;4.50;1.67;;;;;;;;;;2091376;28;20049;-67
2023/05/22 07:08:13;;;;;;;2.47;2.25;;;;;;;;;;2091867;28;20016;-67
2023/05/22 07:09:33;;;;;;;1.77;1.52;;;;;;;;;;2094495;28;20103;-67
2023/05/22 07:10:52;;;;;;;4.75;1.63;;;;;;;;;;2093114;28;20107;-67
2023/05/22 07:12:12;;;;;;;6.93;2.00;;;;;;;;;;2090103;28;20025;-68
2023/05/22 07:13:31;;;;;;;6.03;1.88;;;;;;;;;;2090088;28;20032;-68
2023/05/22 07:14:51;;;;;;;2.42;1.77;;;;;;;;;;2093845;28;20028;-68
2023/05/22 07:16:10;;;;;;;4.45;1.73;;;;;;;;;;2092232;28;20036;-68
2023/05/22 07:17:30;;;;;;;5.03;2.25;;;;;;;;;;2090700;28;20394;-68
2023/05/22 07:18:49;;;;;;;3.58;1.83;;;;;;;;;;2090424;28;20033;-68
2023/05/22 07:20:10;;;;;;;5.82;2.17;;;;;;;;;;2092112;28;20140;-68
2023/05/22 07:21:31;;;;;;;4.38;2.10;;;;;;;;;;2091377;28;20032;-68
2023/05/22 07:22:50;;;;;;;6.43;1.98;;;;;;;;;;2092556;28;20120;-68
2023/05/22 07:24:09;;;;;;;5.85;1.83;;;;;;;;;;2090914;28;20025;-68
2023/05/22 07:25:28;;;;;;;7.05;1.88;;;;;;;;;;2091722;28;20100;-68
2023/05/22 07:26:47;;;;;;;4.93;1.80;;;;;;;;;;2090853;28;20032;-68
2023/05/22 07:28:07;;;;;;;9.70;1.70;;;;;;;;;;2092920;28;20013;-68
2023/05/22 07:29:26;;;;;;;3.15;1.48;;;;;;;;;;2093594;28;20103;-68
2023/05/22 07:30:45;;;;;;;4.18;1.85;;;;;;;;;;2088230;28;20397;-67
2023/05/22 07:32:04;;;;;;;6.53;1.65;;;;;;;;;;2091909;28;20021;-67
2023/05/22 07:33:23;;;;;;;3.45;1.65;;;;;;;;;;2089183;28;20489;-67
2023/05/22 07:34:43;;;;;;;6.25;1.63;;;;;;;;;;2091614;28;20371;-68
2023/05/22 07:36:02;;;;;;;2.50;1.75;;;;;;;;;;2089278;28;20020;-67
2023/05/22 07:37:21;;;;;;;5.40;2.00;;;;;;;;;;2090004;28;20057;-67
2023/05/22 07:38:40;;;;;;;3.38;1.63;;;;;;;;;;2089525;28;20024;-67
2023/05/22 07:39:59;;;;;;;3.85;1.77;;;;;;;;;;2090697;28;20028;-68
2023/05/22 07:41:18;;;;;;;2.40;1.70;;;;;;;;;;2091415;28;20025;-67
2023/05/22 07:42:37;;;;;;;5.25;1.88;;;;;;;;;;2090188;28;20429;-67
2023/05/22 07:43:56;;;;;;;5.75;1.85;;;;;;;;;;2088883;28;20051;-67
2023/05/22 07:45:15;;;;;;;1.52;1.42;;;;;;;;;;2092567;28;20490;-67
2023/05/22 07:46:36;;;;;;;4.25;1.80;;;;;;;;;;2091684;28;20036;-67
2023/05/22 07:47:57;;;;;;;3.75;1.90;;;;;;;;;;2091002;28;20025;-67
2023/05/22 07:49:19;;;;;;;3.33;1.80;;;;;;;;;;2089706;28;20104;-67
2023/05/22 07:50:37;;;;;;;2.05;1.65;;;;;;;;;;2093353;28;20022;-67
2023/05/22 07:51:56;;;;;;;6.85;2.15;;;;;;;;;;2092751;28;20028;-67
2023/05/22 07:53:15;;;;;;;5.80;1.70;;;;;;;;;;2090880;28;20033;-67
2023/05/22 07:54:34;;;;;;;3.38;1.70;;;;;;;;;;2092290;28;20099;-67
2023/05/22 07:55:53;;;;;;;2.30;1.60;;;;;;;;;;2090941;28;20037;-67
2023/05/22 07:57:13;;;;;;;3.15;2.05;;;;;;;;;;2089302;28;20025;-67
2023/05/22 07:58:33;;;;;;;2.55;2.03;;;;;;;;;;2092043;28;20025;-68
2023/05/22 07:59:52;;;;;;;9.80;2.03;;;;;;;;;;2087836;28;20028;-68